AirNav   Air Wisconsin Up To $57,000 Bonus
 
 1461 users online  

PA48 Holy Spirit A Geisinger Affiliate Heliport
Harrisburg, Pennsylvania, USA

GOING TO HARRISBURG?


FAA INFORMATION EFFECTIVE 02 JANUARY 2020

Location

FAA Identifier: PA48
Lat/Long: 40-15-08.1300N 076-55-14.6500W
40-15.135500N 076-55.244167W
40.2522583,-76.9207361
(estimated)
Elevation: 486 ft. / 148 m (estimated)
From city: 2 miles E of HARRISBURG, PA
Time zone: UTC -5 (UTC -4 during Daylight Saving Time)
Zip code: 17011

Heliport Operations

Heliport use: Private use. Permission required prior to landing
Activation date: 10/2008
Control tower: no
ARTCC: NEW YORK CENTER
FSS: WILLIAMSPORT FLIGHT SERVICE STATION
Attendance: CONTINUOUS
Wind indicator: yes
Segmented circle: no

Heliport Communications

WX ASOS at CXY (4 nm SE): PHONE 717-770-0880
WX ASOS at MDT (8 nm SE): 118.8 (717-944-1372)
WX ASOS at MUI (19 nm NE): 124.175 (717-861-2536)

Nearby radio navigation aids

VOR radial/distance  VOR name  Freq  Var
HARr124/7.4HARRISBURG VORTAC112.5010W
RAVr230/23.3RAVINE VORTAC114.6011W
LRPr294/29.9LANCASTER VOR/DME117.3009W
SEGr191/32.4SELINSGROVE VOR/DME110.4008W

 
NDB name  Hdg/Dist  Freq  Var  ID
ENOLAat field20411WMD -- -..
LATLE052/5.921911WCX -.-. -..-
BELLGROVE247/20.132810WBZJ -... --.. .---

Heliport Services

Runway Information

Helipad H1

Dimensions: 45 x 50 ft. / 14 x 15 m
Surface: concrete
Latitude: 40-15.135500N
Longitude: 076-55.244167W
Elevation: 426.0 ft.
Traffic pattern: leftleft

Helipad H2

Dimensions: 55 x 55 ft. / 17 x 17 m
Surface: ROOF/TOP
Latitude: 40-15.208333N
Longitude: 076-55.266667W
Elevation: 486.0 ft.
Traffic pattern: leftleft

Heliport Ownership and Management from official FAA records

Ownership: Privately-owned
Owner: HOLY SPIRIT - A GEISINGER AFFILIATE
503 N. 21ST STREET
CAMP HILL, PA 17011
Phone 717-763-2100
Manager: MICHAEL R SOKOLAS
503 N. 21ST STREET
CAMP HILL, PA 17011
Phone 717-763-3068

Additional Remarks

FOR CD CTC HARRISBURG APCH AT 800-932-0712.

Instrument Procedures

There are no published instrument procedures at PA48.

Some nearby airports with instrument procedures:

KCXY - Capital City Airport (4 nm SE)
KMDT - Harrisburg International Airport (8 nm SE)
N94 - Carlisle Airport (12 nm W)
58N - Reigle Field Airport (16 nm E)
N71 - Donegal Springs Airpark (19 nm SE)
KMUI - Muir Army Airfield (Fort Indiantown Gap) (19 nm NE)
 
Loc | Ops | Rwys | IFR | FBO | Links
Com | Nav | Svcs | Stats | Notes
Aerial photo
No photo
 
Sectional chart

 
Airport distance calculator
Flying to Holy Spirit A Geisinger Affiliate Heliport? Find the distance to fly.

From to PA48

Sunrise and sunset
Times for 23-Jan-2020
 Local
(UTC-5)
 Zulu
(UTC)
Morning civil twilight06:5611:56
Sunrise07:2512:25
Sunset17:1422:14
Evening civil twilight17:4322:43

Current date and time
Zulu (UTC)  23-Jan-2020 23:25:53
Local (UTC-5)  23-Jan-2020 18:25:53
 
METAR
KCXY 
4nm SE 
232256Z 00000KT 10SM CLR 02/M06 A3033 RMK AO2 SLP278 T00171056
KMDT 
8nm SE 
232256Z 00000KT 10SM FEW170 OVC200 02/M04 A3033 RMK AO2 SLP275 T00171044
KMUI 
19nm NE 
232256Z 00000KT 10SM SCT210 OVC250 00/M04 A3033 RMK AO2A SLP281 T00031045
TAF
KMDT 
8nm SE 
232212Z 2322/2418 VRB03KT P6SM BKN200 FM240600 00000KT P6SM OVC150 FM241500 09003KT P6SM OVC050
KMUI 
19nm NE 
231900Z 2319/2501 VRB06KT 9999 SCT200 SCT300 QNH3029INS BECMG 2407/2409 09009KT 9999 BKN015 OVC025 601303 QNH3018INS BECMG 2423/2424 09010G15KT 9999 BKN025 OVC035 601303 QNH3016INS TX04/2419Z TNM03/2406Z LAST NO AMDS AFT 2405 NEXT 2411
NOTAMs
Click for the latest NOTAMs
NOTAMs are issued by the DoD/FAA and will open in a separate window not controlled by AirNav.

 

 
 

Would you like to see your business listed on this page?

 If your business provides an interesting product or service to pilots, flight crews, aircraft, or users of the Holy Spirit A Geisinger Affiliate Heliport, you should consider listing it here.  To start the listing process, click on the button below
 
Add a business
 

Other Pages about Holy Spirit A Geisinger Affiliate Heliport

Update a link
 
Copyright © AirNav, LLC. All rights reserved. Privacy Policy  Contact